Time;durP1;ratioP1;P1;durP2;ratioP2;P2;SDS_P1;SDS_P2;PMS_P1;PMS_P2;Temp;Humidity;BMP_temperature;BMP_pressure;BME280_temperature;BME280_humidity;BME280_pressure;Samples;Min_cycle;Max_cycle;Signal;HPM_P1;HPM_P2
2023/05/15 00:00:10;;;;;;;10.82;9.65;;;;;;;10.42;100.00;101288.78;4919628;29;20215;-51
2023/05/15 00:02:42;;;;;;;9.35;8.45;;;;;;;10.43;100.00;101286.97;4925709;29;20722;-50
2023/05/15 00:05:08;;;;;;;9.75;8.88;;;;;;;10.39;100.00;101282.66;4940610;29;20191;-51
2023/05/15 00:07:34;;;;;;;8.50;7.80;;;;;;;10.42;100.00;101296.81;4939479;29;20542;-52
2023/05/15 00:10:00;;;;;;;8.30;7.68;;;;;;;10.46;100.00;101290.47;4941242;29;20272;-51
2023/05/15 00:12:26;;;;;;;9.70;8.70;;;;;;;10.41;100.00;101283.50;4922803;29;20698;-51
2023/05/15 00:14:51;;;;;;;11.45;9.63;;;;;;;10.35;100.00;101275.66;4940300;29;20210;-51
2023/05/15 00:17:17;;;;;;;11.73;10.65;;;;;;;10.26;100.00;101274.09;4940673;28;20187;-51
2023/05/15 00:19:43;;;;;;;10.95;9.85;;;;;;;10.29;100.00;101277.56;4938446;29;20202;-50
2023/05/15 00:22:08;;;;;;;10.57;9.68;;;;;;;10.30;100.00;101273.97;4941774;29;20197;-52
2023/05/15 00:24:33;;;;;;;13.35;12.10;;;;;;;10.15;100.00;101274.41;4943495;29;20199;-49
2023/05/15 00:27:00;;;;;;;12.60;11.43;;;;;;;9.91;100.00;101278.66;4939196;29;20645;-50
2023/05/15 00:31:53;;;;;;;12.07;10.82;;;;;;;10.16;100.00;101268.09;4942747;28;20269;-44
2023/05/15 00:34:19;;;;;;;13.27;11.98;;;;;;;10.09;100.00;101277.25;4935638;29;20199;-47
2023/05/15 00:36:44;;;;;;;15.75;14.15;;;;;;;10.02;100.00;101270.34;4917529;29;20186;-47
2023/05/15 00:39:10;;;;;;;15.23;13.77;;;;;;;10.02;100.00;101279.22;4902112;29;20208;-45
2023/05/15 00:41:37;;;;;;;16.52;15.02;;;;;;;10.04;100.00;101276.53;4917863;29;20186;-47
2023/05/15 00:44:05;;;;;;;15.93;14.38;;;;;;;10.04;100.00;101289.91;4922049;29;20623;-47
2023/05/15 00:46:32;;;;;;;23.48;21.23;;;;;;;9.92;100.00;101283.09;4923109;29;20191;-46
2023/05/15 00:48:58;;;;;;;21.30;19.15;;;;;;;9.85;100.00;101274.34;4921384;29;20180;-47
2023/05/15 00:51:25;;;;;;;19.45;17.63;;;;;;;9.79;100.00;101281.66;4915459;29;20670;-47
2023/05/15 00:53:51;;;;;;;18.60;16.80;;;;;;;9.86;100.00;101273.44;4929963;29;20199;-46
2023/05/15 00:56:17;;;;;;;18.83;16.85;;;;;;;9.83;100.00;101273.50;4921534;29;20280;-44
2023/05/15 00:58:46;;;;;;;19.08;17.38;;;;;;;9.85;100.00;101273.47;4913373;29;20627;-45
2023/05/15 01:01:14;;;;;;;16.67;15.18;;;;;;;9.89;100.00;101269.81;4923156;29;20600;-45
2023/05/15 01:03:40;;;;;;;18.55;16.85;;;;;;;9.71;100.00;101260.50;4926922;29;20227;-46
2023/05/15 01:06:06;;;;;;;20.00;18.02;;;;;;;9.74;100.00;101271.09;4916266;29;20176;-46
2023/05/15 01:08:42;;;;;;;18.05;16.38;;;;;;;9.82;100.00;101263.75;4927030;29;20226;-45
2023/05/15 01:11:10;;;;;;;20.98;18.98;;;;;;;9.85;100.00;101265.44;4906203;29;20183;-46
2023/05/15 01:13:36;;;;;;;19.80;18.13;;;;;;;9.92;100.00;101264.34;4905298;29;20332;-43
2023/05/15 01:16:05;;;;;;;22.13;20.13;;;;;;;9.94;100.00;101251.78;4912546;29;20260;-48
2023/05/15 01:18:33;;;;;;;21.50;19.50;;;;;;;9.84;100.00;101242.31;4907913;29;20639;-50
2023/05/15 01:21:04;;;;;;;25.67;23.27;;;;;;;9.67;100.00;101246.31;4918648;29;20275;-48
2023/05/15 01:23:47;;;;;;;25.48;23.02;;;;;;;9.62;100.00;101250.03;4926971;29;20223;-48
2023/05/15 01:26:41;;;;;;;24.90;22.48;;;;;;;9.57;100.00;101251.97;4923709;29;20241;-49
2023/05/15 01:29:12;;;;;;;31.23;27.95;;;;;;;9.46;100.00;101244.22;4926384;29;20191;-49
2023/05/15 01:31:41;;;;;;;33.65;30.60;;;;;;;9.49;100.00;101246.84;4939789;29;20208;-48
2023/05/15 01:34:09;;;;;;;38.72;34.75;;;;;;;9.59;100.00;101251.00;4919679;29;20192;-48
2023/05/15 01:36:41;;;;;;;40.67;36.70;;;;;;;9.56;100.00;101247.53;4923893;29;20246;-48
2023/05/15 01:39:10;;;;;;;38.38;34.50;;;;;;;9.63;100.00;101236.63;4923914;29;20234;-50
2023/05/15 01:41:50;;;;;;;40.80;36.80;;;;;;;9.65;100.00;101239.25;4925908;29;20226;-48
2023/05/15 01:44:27;;;;;;;44.28;39.78;;;;;;;9.78;100.00;101232.63;4919604;29;20219;-48
2023/05/15 01:47:05;;;;;;;46.30;41.42;;;;;;;9.83;100.00;101237.84;4922256;29;20219;-50
2023/05/15 01:49:32;;;;;;;47.75;43.15;;;;;;;9.77;100.00;101238.03;4925264;29;20215;-47
2023/05/15 01:52:28;;;;;;;47.33;42.50;;;;;;;9.80;100.00;101238.81;4925424;29;20407;-47
2023/05/15 01:54:54;;;;;;;47.10;42.30;;;;;;;9.88;100.00;101235.91;4926696;29;20555;-47
2023/05/15 01:57:21;;;;;;;46.80;42.17;;;;;;;9.89;100.00;101230.53;4925311;29;20252;-48
2023/05/15 01:59:47;;;;;;;45.38;40.83;;;;;;;10.00;100.00;101229.34;4930553;29;20203;-47
2023/05/15 02:02:13;;;;;;;42.90;38.65;;;;;;;10.04;100.00;101225.66;4924312;29;20709;-47
2023/05/15 02:04:40;;;;;;;43.53;39.42;;;;;;;10.00;100.00;101232.03;4927585;29;20303;-47
2023/05/15 02:07:06;;;;;;;43.25;39.03;;;;;;;9.63;100.00;101236.63;4924353;29;20196;-51
2023/05/15 02:09:33;;;;;;;37.58;33.97;;;;;;;9.72;100.00;101227.44;4923015;29;20184;-46
2023/05/15 02:12:02;;;;;;;39.08;35.35;;;;;;;9.82;100.00;101231.63;4934437;29;20175;-47
2023/05/15 02:14:29;;;;;;;40.78;36.92;;;;;;;9.57;100.00;101230.56;4920329;29;20298;-48
2023/05/15 02:16:55;;;;;;;34.58;31.33;;;;;;;9.54;100.00;101228.84;4922350;29;20270;-49
2023/05/15 02:19:20;;;;;;;39.33;35.58;;;;;;;9.52;100.00;101227.13;4922378;29;20807;-48
2023/05/15 02:21:46;;;;;;;35.88;32.38;;;;;;;9.33;100.00;101226.75;4933667;29;20198;-48
2023/05/15 02:24:12;;;;;;;36.60;33.10;;;;;;;9.40;100.00;101218.53;4918551;29;20220;-48
2023/05/15 02:27:01;;;;;;;32.33;29.13;;;;;;;9.56;100.00;101220.78;4920598;29;20271;-49
2023/05/15 02:29:49;;;;;;;32.60;29.52;;;;;;;9.57;100.00;101211.84;4931687;29;20183;-47
2023/05/15 02:32:24;;;;;;;37.42;33.55;;;;;;;9.45;100.00;101215.72;4933457;29;20717;-47
2023/05/15 02:35:08;;;;;;;35.65;32.22;;;;;;;9.44;100.00;101208.63;4919982;29;20194;-48
2023/05/15 02:37:38;;;;;;;35.67;32.28;;;;;;;9.13;100.00;101205.88;4921600;29;20580;-48
2023/05/15 02:40:08;;;;;;;33.78;30.60;;;;;;;9.21;100.00;101195.88;4904805;29;20223;-48
2023/05/15 02:42:35;;;;;;;30.38;27.58;;;;;;;9.36;100.00;101192.78;4939308;29;20204;-48
2023/05/15 02:45:02;;;;;;;31.77;28.67;;;;;;;9.42;100.00;101199.75;4916383;29;20293;-53
2023/05/15 02:47:29;;;;;;;28.58;25.88;;;;;;;9.51;100.00;101195.94;4925340;29;20663;-48
2023/05/15 02:49:55;;;;;;;31.05;28.13;;;;;;;9.40;100.00;101197.16;4925325;29;20185;-48
2023/05/15 02:52:24;;;;;;;33.13;30.02;;;;;;;9.33;100.00;101200.88;4926929;29;20211;-50
2023/05/15 02:54:50;;;;;;;31.70;28.50;;;;;;;9.02;100.00;101212.38;4928497;29;20171;-49
2023/05/15 02:57:15;;;;;;;30.10;27.15;;;;;;;9.22;100.00;101206.50;4929709;29;20183;-52
2023/05/15 02:59:41;;;;;;;33.75;30.60;;;;;;;8.98;100.00;101208.03;4923820;29;20195;-47
2023/05/15 03:02:07;;;;;;;32.10;29.10;;;;;;;9.03;100.00;101208.81;4924248;29;20187;-48
2023/05/15 03:04:32;;;;;;;30.83;27.88;;;;;;;9.15;100.00;101191.56;4919513;29;20196;-48
2023/05/15 03:06:58;;;;;;;33.45;30.05;;;;;;;9.03;100.00;101191.88;4922095;29;20645;-48
2023/05/15 03:09:24;;;;;;;31.65;28.65;;;;;;;9.06;100.00;101200.69;4921561;29;20247;-47
2023/05/15 03:11:49;;;;;;;32.13;29.08;;;;;;;9.04;100.00;101188.31;4933828;29;20270;-48
2023/05/15 03:14:16;;;;;;;27.92;25.23;;;;;;;9.10;100.00;101195.28;4926718;29;20235;-51
2023/05/15 03:16:41;;;;;;;30.48;27.58;;;;;;;9.04;100.00;101183.81;4925870;29;20190;-49
2023/05/15 03:19:07;;;;;;;31.27;28.40;;;;;;;9.06;100.00;101186.47;4932243;29;20757;-49
2023/05/15 03:21:33;;;;;;;32.17;28.92;;;;;;;8.88;100.00;101190.50;4938220;29;20214;-48
2023/05/15 03:24:00;;;;;;;29.65;26.73;;;;;;;8.93;100.00;101185.03;4930607;29;20216;-48
2023/05/15 03:26:25;;;;;;;30.33;27.45;;;;;;;9.01;100.00;101180.38;4922720;29;20188;-46
2023/05/15 03:28:51;;;;;;;28.40;25.63;;;;;;;9.08;100.00;101169.47;4931726;29;20187;-49
2023/05/15 03:31:17;;;;;;;27.63;24.83;;;;;;;9.10;100.00;101174.78;4915136;29;20188;-49
2023/05/15 03:33:44;;;;;;;28.35;25.73;;;;;;;9.13;100.00;101168.47;4904391;29;20192;-53
2023/05/15 03:36:10;;;;;;;27.48;24.88;;;;;;;9.19;100.00;101163.84;4925240;29;20187;-48
2023/05/15 03:38:35;;;;;;;28.35;25.65;;;;;;;9.18;100.00;101170.13;4929702;29;20194;-50
2023/05/15 03:41:01;;;;;;;31.52;28.42;;;;;;;9.13;100.00;101168.47;4930350;29;20188;-52
2023/05/15 03:43:29;;;;;;;29.88;26.92;;;;;;;9.07;100.00;101156.13;4928197;29;20258;-54
2023/05/15 03:45:55;;;;;;;30.70;27.50;;;;;;;9.09;100.00;101159.63;4899228;29;20461;-46
2023/05/15 03:48:21;;;;;;;30.15;27.23;;;;;;;9.18;100.00;101166.53;4897657;29;20192;-48
2023/05/15 03:50:46;;;;;;;30.83;27.85;;;;;;;9.18;100.00;101159.41;4926348;29;20618;-48
2023/05/15 03:53:12;;;;;;;28.80;26.05;;;;;;;9.30;100.00;101160.88;4917170;29;20188;-52
2023/05/15 03:55:37;;;;;;;27.73;25.23;;;;;;;9.36;100.00;101155.34;4915166;29;20659;-48
2023/05/15 03:58:04;;;;;;;29.77;26.88;;;;;;;9.34;100.00;101145.63;4926799;29;20195;-51
2023/05/15 04:00:29;;;;;;;29.95;27.05;;;;;;;9.34;100.00;101149.16;4913584;29;20188;-47
2023/05/15 04:02:55;;;;;;;31.77;28.75;;;;;;;9.28;100.00;101152.88;4918542;29;20207;-46
2023/05/15 04:05:21;;;;;;;31.73;28.65;;;;;;;9.31;100.00;101148.38;4928991;29;20594;-50
2023/05/15 04:07:46;;;;;;;30.63;27.77;;;;;;;9.30;100.00;101142.16;4912370;29;20642;-48
2023/05/15 04:10:12;;;;;;;32.95;29.75;;;;;;;9.23;100.00;101143.25;4916406;29;20233;-48
2023/05/15 04:12:38;;;;;;;29.60;26.83;;;;;;;9.30;100.00;101139.47;4916435;29;20267;-46
2023/05/15 04:15:17;;;;;;;29.45;26.65;;;;;;;9.31;100.00;101133.19;4933202;29;20202;-49
2023/05/15 04:17:44;;;;;;;31.25;28.27;;;;;;;9.37;100.00;101145.53;4921168;29;20175;-52
2023/05/15 04:20:11;;;;;;;29.65;26.88;;;;;;;9.47;100.00;101139.88;4925129;29;20235;-46
2023/05/15 04:22:36;;;;;;;32.00;29.00;;;;;;;9.49;100.00;101132.69;4911891;29;20191;-47
2023/05/15 04:25:03;;;;;;;29.85;26.95;;;;;;;9.55;100.00;101139.63;4920269;29;20182;-47
2023/05/15 04:27:29;;;;;;;28.02;25.27;;;;;;;9.60;100.00;101134.16;4929221;29;20199;-48
2023/05/15 04:29:54;;;;;;;32.97;29.80;;;;;;;9.51;100.00;101129.06;4925598;29;20202;-46
2023/05/15 04:32:21;;;;;;;31.42;28.45;;;;;;;9.53;100.00;101133.47;4932430;29;20214;-49
2023/05/15 04:34:46;;;;;;;29.85;26.90;;;;;;;9.69;100.00;101126.75;4915558;29;20184;-46
2023/05/15 04:37:12;;;;;;;29.90;26.92;;;;;;;9.79;100.00;101124.66;4923456;29;20184;-49
2023/05/15 04:39:37;;;;;;;28.77;25.98;;;;;;;9.86;100.00;101130.69;4923984;29;20694;-53
2023/05/15 04:42:03;;;;;;;32.60;29.35;;;;;;;9.89;100.00;101126.13;4914019;29;20900;-50
2023/05/15 04:44:29;;;;;;;30.88;28.05;;;;;;;9.94;100.00;101135.84;4923417;29;20200;-46
2023/05/15 04:46:54;;;;;;;30.83;27.90;;;;;;;10.03;100.00;101135.53;4919350;29;20587;-48
2023/05/15 04:49:20;;;;;;;29.35;26.55;;;;;;;10.18;100.00;101124.34;4924009;29;20233;-52
2023/05/15 04:51:45;;;;;;;31.02;28.05;;;;;;;10.36;100.00;101128.25;4917733;29;20215;-48
2023/05/15 04:54:11;;;;;;;28.08;25.38;;;;;;;10.52;100.00;101125.97;4929194;29;20215;-49
2023/05/15 04:56:36;;;;;;;32.45;29.33;;;;;;;10.35;100.00;101122.97;4917806;29;20187;-51
2023/05/15 04:59:02;;;;;;;30.58;27.58;;;;;;;10.46;100.00;101131.53;4922506;29;20179;-47
2023/05/15 05:01:28;;;;;;;32.05;29.05;;;;;;;10.59;100.00;101123.97;4923848;29;20327;-47
2023/05/15 05:03:53;;;;;;;32.65;29.52;;;;;;;10.61;100.00;101116.75;4920740;29;20223;-47
2023/05/15 05:06:19;;;;;;;34.33;30.95;;;;;;;10.70;100.00;101122.66;4925163;29;20259;-51
2023/05/15 05:08:44;;;;;;;32.50;29.30;;;;;;;10.96;100.00;101110.19;4920928;29;20251;-46
2023/05/15 05:11:09;;;;;;;34.22;30.90;;;;;;;11.22;100.00;101119.97;4924818;29;20199;-46
2023/05/15 05:13:35;;;;;;;33.78;30.30;;;;;;;11.37;100.00;101115.84;4922639;29;20203;-50
2023/05/15 05:16:01;;;;;;;31.88;28.88;;;;;;;11.50;100.00;101117.16;4925328;29;20592;-47
2023/05/15 05:18:26;;;;;;;30.23;27.40;;;;;;;11.52;100.00;101109.03;4922904;29;20675;-48
2023/05/15 05:21:04;;;;;;;29.38;26.48;;;;;;;11.69;100.00;101113.75;4919986;29;20279;-48
2023/05/15 05:23:30;;;;;;;31.92;27.38;;;;;;;11.74;100.00;101115.34;4922684;29;20693;-49
2023/05/15 05:25:56;;;;;;;29.92;27.02;;;;;;;11.95;100.00;101129.75;4922546;29;20180;-48
2023/05/15 05:28:21;;;;;;;28.33;25.35;;;;;;;11.88;100.00;101130.94;4919541;29;20180;-48
2023/05/15 05:30:47;;;;;;;26.35;23.58;;;;;;;11.88;100.00;101119.34;4919771;29;20681;-46
2023/05/15 05:33:13;;;;;;;27.20;23.77;;;;;;;11.91;100.00;101121.88;4922147;29;20210;-48
2023/05/15 05:39:01;;;;;;;24.35;22.08;;;;;;;12.14;100.00;101124.53;4924946;29;20184;-49
2023/05/15 05:41:26;;;;;;;26.92;24.25;;;;;;;12.14;100.00;101112.94;4924760;29;20184;-49
2023/05/15 05:43:52;;;;;;;25.85;23.40;;;;;;;12.13;100.00;101120.13;4920916;29;20586;-48
2023/05/15 05:46:18;;;;;;;24.33;21.98;;;;;;;12.20;100.00;101111.78;4919305;29;20262;-48
2023/05/15 05:48:43;;;;;;;26.73;23.15;;;;;;;12.30;100.00;101121.22;4907927;29;20266;-48
2023/05/15 05:51:09;;;;;;;25.20;22.73;;;;;;;12.42;100.00;101109.09;4922757;29;20536;-51
2023/05/15 05:53:34;;;;;;;26.30;23.58;;;;;;;12.50;100.00;101109.66;4922408;29;20246;-46
2023/05/15 05:56:00;;;;;;;23.73;21.63;;;;;;;12.63;100.00;101102.81;4912800;29;20196;-47
2023/05/15 05:58:26;;;;;;;23.77;21.33;;;;;;;12.64;100.00;101101.91;4919490;29;20188;-48
2023/05/15 06:00:52;;;;;;;23.55;21.08;;;;;;;12.63;100.00;101096.59;4920860;29;20215;-51
2023/05/15 06:03:18;;;;;;;23.00;20.25;;;;;;;12.92;100.00;101108.75;4919580;29;20250;-49
2023/05/15 06:05:43;;;;;;;22.52;20.30;;;;;;;12.83;100.00;101111.84;4921155;29;20282;-53
2023/05/15 06:08:09;;;;;;;23.98;19.20;;;;;;;13.08;100.00;101099.09;4923098;29;20179;-46
2023/05/15 06:10:34;;;;;;;19.95;17.80;;;;;;;13.01;100.00;101099.41;4924427;29;20641;-47
2023/05/15 06:13:00;;;;;;;20.15;18.20;;;;;;;12.98;100.00;101103.13;4918140;29;20195;-52
2023/05/15 06:15:25;;;;;;;19.10;17.08;;;;;;;13.10;100.00;101105.28;4924305;29;20770;-46
2023/05/15 06:17:51;;;;;;;17.15;15.55;;;;;;;13.63;100.00;101092.19;4913437;29;20183;-48
2023/05/15 06:20:17;;;;;;;16.88;15.32;;;;;;;13.65;100.00;101092.97;4927825;29;20273;-49
2023/05/15 06:22:42;;;;;;;16.40;14.70;;;;;;;13.50;100.00;101090.03;4928498;29;20212;-47
2023/05/15 06:25:12;;;;;;;15.23;13.73;;;;;;;13.84;100.00;101084.88;4925044;29;20316;-49
2023/05/15 06:27:39;;;;;;;15.25;13.63;;;;;;;13.54;100.00;101080.03;4922730;29;20647;-47
2023/05/15 06:30:05;;;;;;;14.30;12.90;;;;;;;13.53;100.00;101086.34;4925223;29;20195;-47
2023/05/15 06:32:32;;;;;;;15.35;13.73;;;;;;;13.29;100.00;101082.94;4925948;29;20208;-52
2023/05/15 06:34:58;;;;;;;14.82;13.32;;;;;;;13.40;100.00;101080.63;4929319;29;20184;-50
2023/05/15 06:37:23;;;;;;;15.10;12.43;;;;;;;13.45;100.00;101083.16;4924437;29;20184;-50
2023/05/15 06:39:49;;;;;;;13.32;12.02;;;;;;;13.65;100.00;101080.38;4922910;29;20568;-50
2023/05/15 06:42:14;;;;;;;13.32;12.02;;;;;;;13.69;100.00;101082.00;4926219;29;20658;-50
2023/05/15 06:44:40;;;;;;;12.15;10.90;;;;;;;13.82;100.00;101066.13;4926622;29;20200;-50
2023/05/15 06:47:05;;;;;;;14.73;11.05;;;;;;;13.94;100.00;101065.53;4925573;29;20648;-50
2023/05/15 06:49:31;;;;;;;19.33;12.40;;;;;;;14.02;100.00;101057.94;4928548;29;20194;-49
2023/05/15 06:51:56;;;;;;;12.40;10.73;;;;;;;13.74;100.00;101060.22;4916627;29;20180;-50
2023/05/15 06:54:22;;;;;;;15.80;10.35;;;;;;;14.25;100.00;101065.84;4926877;29;20191;-51
2023/05/15 06:56:47;;;;;;;11.02;9.63;;;;;;;14.48;100.00;101053.91;4923749;29;20184;-50
2023/05/15 06:59:13;;;;;;;10.38;8.27;;;;;;;14.82;99.39;101048.56;4922854;29;20186;-52
2023/05/15 07:01:38;;;;;;;9.02;7.40;;;;;;;15.13;93.71;101036.13;4930598;29;20197;-59
2023/05/15 07:04:04;;;;;;;8.18;7.38;;;;;;;15.25;89.99;101032.75;4927129;29;20686;-49
2023/05/15 07:06:30;;;;;;;7.93;7.05;;;;;;;15.69;88.08;101031.22;4929052;29;20220;-47
2023/05/15 07:08:57;;;;;;;7.90;7.07;;;;;;;15.57;86.47;101024.72;4929317;29;20270;-48
2023/05/15 07:11:22;;;;;;;9.32;7.20;;;;;;;15.33;86.23;101020.69;4920011;29;20190;-50
2023/05/15 07:13:48;;;;;;;7.75;6.60;;;;;;;15.09;85.97;101023.75;4916768;29;20203;-50
2023/05/15 07:16:13;;;;;;;7.65;6.80;;;;;;;15.12;86.19;101023.56;4924605;29;20236;-49
2023/05/15 07:18:38;;;;;;;10.65;7.10;;;;;;;15.35;86.15;101019.63;4926662;29;20180;-49
2023/05/15 07:21:04;;;;;;;6.68;6.07;;;;;;;15.35;84.56;101026.84;4929386;29;20286;-51
2023/05/15 07:23:30;;;;;;;10.35;6.63;;;;;;;15.40;83.63;101019.38;4926350;29;20754;-51
2023/05/15 07:25:55;;;;;;;6.85;6.28;;;;;;;15.32;81.94;101011.69;4921971;29;20522;-52
2023/05/15 07:28:21;;;;;;;11.52;6.97;;;;;;;15.84;80.37;101008.78;4918580;29;20179;-48
2023/05/15 07:30:47;;;;;;;9.73;6.60;;;;;;;15.90;79.38;100996.75;4917350;29;20195;-47
2023/05/15 07:33:12;;;;;;;7.10;6.40;;;;;;;15.91;78.26;100995.78;4924710;29;20198;-50
2023/05/15 07:35:37;;;;;;;10.05;6.28;;;;;;;15.92;78.49;100997.53;4925304;29;20196;-49
2023/05/15 07:38:03;;;;;;;8.63;7.53;;;;;;;15.45;79.03;100999.25;4922283;29;20174;-48
2023/05/15 07:40:29;;;;;;;8.00;6.60;;;;;;;15.60;79.38;101008.31;4915351;29;20207;-49
2023/05/15 07:42:55;;;;;;;11.52;7.25;;;;;;;15.96;78.61;100987.41;4918989;29;20299;-49
2023/05/15 07:45:20;;;;;;;8.70;6.05;;;;;;;15.84;76.38;100984.47;4921400;29;20679;-50
2023/05/15 07:47:47;;;;;;;11.00;6.53;;;;;;;15.84;76.16;100967.38;4921497;29;20287;-48
2023/05/15 07:50:14;;;;;;;9.43;6.28;;;;;;;15.80;75.95;100972.09;4923974;29;20320;-49
2023/05/15 07:52:40;;;;;;;11.93;6.38;;;;;;;15.72;75.28;100963.59;4924933;29;20671;-50
2023/05/15 07:55:06;;;;;;;7.10;6.32;;;;;;;16.05;76.21;100976.94;4923428;29;20207;-49
2023/05/15 07:57:31;;;;;;;8.55;6.15;;;;;;;16.25;75.37;100975.75;4925321;29;20544;-49
2023/05/15 07:59:57;;;;;;;9.57;6.30;;;;;;;16.03;74.66;100967.19;4920087;29;20211;-49
2023/05/15 08:02:22;;;;;;;7.97;6.15;;;;;;;15.84;74.50;100968.25;4923309;29;20191;-49
2023/05/15 08:04:48;;;;;;;8.95;6.03;;;;;;;16.00;74.25;100965.50;4923565;29;20239;-49
2023/05/15 08:07:14;;;;;;;7.00;6.28;;;;;;;15.76;75.21;100975.06;4922298;29;20635;-49
2023/05/15 08:09:40;;;;;;;11.13;6.18;;;;;;;15.77;75.81;100974.13;4918753;29;20631;-48
2023/05/15 08:12:19;;;;;;;10.52;6.18;;;;;;;16.16;77.39;100988.94;4921341;29;20269;-49
2023/05/15 08:14:55;;;;;;;7.97;6.38;;;;;;;16.32;76.12;100976.25;4922949;29;20203;-47
2023/05/15 08:17:22;;;;;;;8.57;5.93;;;;;;;16.22;76.32;100973.25;4925941;29;20620;-47
2023/05/15 08:19:48;;;;;;;7.90;5.53;;;;;;;15.91;74.87;100960.66;4925491;29;20183;-47
2023/05/15 08:22:14;;;;;;;6.45;5.85;;;;;;;15.68;74.21;100953.88;4925889;29;20258;-50
2023/05/15 08:24:40;;;;;;;7.05;6.18;;;;;;;15.58;75.73;100961.63;4928415;29;20709;-50
2023/05/15 08:27:07;;;;;;;9.63;6.65;;;;;;;15.15;76.42;100972.16;4924020;29;20188;-48
2023/05/15 08:29:36;;;;;;;8.52;7.03;;;;;;;15.34;77.19;100971.09;4923645;29;20192;-50
2023/05/15 08:32:02;;;;;;;12.82;7.13;;;;;;;15.43;79.14;100984.94;4920932;29;20258;-49
2023/05/15 08:34:28;;;;;;;10.50;6.40;;;;;;;15.15;79.30;100982.94;4924480;29;20224;-47
2023/05/15 08:36:55;;;;;;;7.47;6.75;;;;;;;15.43;79.32;100973.28;4929465;29;20199;-47
2023/05/15 08:39:21;;;;;;;8.55;6.63;;;;;;;15.77;78.73;100960.59;4923209;29;20209;-49
2023/05/15 08:42:07;;;;;;;7.97;5.65;;;;;;;15.88;75.46;100947.34;4920650;29;20545;-49
2023/05/15 08:44:32;;;;;;;6.45;4.70;;;;;;;15.70;72.81;100924.03;4916748;29;20239;-48
2023/05/15 08:46:58;;;;;;;6.65;5.22;;;;;;;15.61;71.56;100907.44;4923169;29;20674;-49
2023/05/15 08:49:51;;;;;;;13.77;5.20;;;;;;;15.73;69.45;100907.72;4925594;29;20674;-49
2023/05/15 08:52:17;;;;;;;10.90;4.75;;;;;;;16.38;68.22;100892.06;4923689;29;20612;-50
2023/05/15 08:54:46;;;;;;;6.40;5.40;;;;;;;16.50;68.71;100901.25;4925065;29;20274;-50
2023/05/15 08:57:13;;;;;;;8.70;6.65;;;;;;;16.43;69.74;100905.31;4927210;29;20278;-48
2023/05/15 08:59:39;;;;;;;12.75;6.70;;;;;;;16.45;71.18;100915.06;4916224;29;20262;-48
2023/05/15 09:02:05;;;;;;;8.10;6.18;;;;;;;16.74;72.66;100925.91;4917928;29;20295;-49
2023/05/15 09:04:30;;;;;;;10.23;7.60;;;;;;;15.95;73.13;100916.28;4925793;29;20227;-50
2023/05/15 09:06:59;;;;;;;8.93;8.02;;;;;;;15.66;75.33;100932.34;4923157;29;20199;-49
2023/05/15 09:09:26;;;;;;;9.30;8.07;;;;;;;15.64;77.72;100955.88;4922858;29;20183;-50
2023/05/15 09:11:52;;;;;;;12.95;7.85;;;;;;;15.67;78.20;100952.13;4921204;29;20218;-50
2023/05/15 09:14:18;;;;;;;12.15;7.63;;;;;;;15.44;79.00;100954.31;4913871;29;20230;-50
2023/05/15 09:16:45;;;;;;;9.40;7.72;;;;;;;15.61;79.69;100949.75;4917430;29;20663;-50
2023/05/15 09:19:12;;;;;;;12.27;7.90;;;;;;;15.73;79.57;100949.09;4922410;29;20560;-52
2023/05/15 09:21:38;;;;;;;11.82;7.50;;;;;;;15.99;77.45;100944.00;4922148;29;20219;-50
2023/05/15 09:24:18;;;;;;;10.60;6.68;;;;;;;15.99;73.71;100925.97;4917616;29;20314;-49
2023/05/15 09:26:46;;;;;;;8.80;6.93;;;;;;;16.05;71.74;100911.22;4923464;29;20202;-49
2023/05/15 09:29:15;;;;;;;10.10;6.78;;;;;;;16.19;71.72;100913.09;4924216;29;20237;-47
2023/05/15 09:31:41;;;;;;;9.75;7.03;;;;;;;16.10;71.32;100919.91;4918678;29;20199;-50
2023/05/15 09:34:08;;;;;;;13.07;6.53;;;;;;;16.01;71.18;100920.47;4918000;29;20289;-47
2023/05/15 09:36:34;;;;;;;8.80;5.75;;;;;;;16.12;70.91;100907.19;4922375;29;20589;-49
2023/05/15 09:39:00;;;;;;;7.00;6.30;;;;;;;16.33;71.07;100913.09;4924821;29;20203;-49
2023/05/15 09:41:26;;;;;;;6.40;5.75;;;;;;;16.12;69.37;100898.22;4926120;29;20721;-49
2023/05/15 09:43:55;;;;;;;7.43;6.18;;;;;;;16.05;68.81;100898.56;4920959;29;20239;-49
2023/05/15 09:46:24;;;;;;;8.65;6.28;;;;;;;16.10;68.80;100881.22;4917812;29;20266;-48
2023/05/15 09:48:54;;;;;;;9.50;5.88;;;;;;;16.32;68.17;100886.19;4924178;29;20219;-50
2023/05/15 09:51:20;;;;;;;10.35;6.18;;;;;;;16.54;67.48;100880.31;4929230;29;20180;-49
2023/05/15 09:53:50;;;;;;;8.93;5.97;;;;;;;17.01;66.69;100871.03;4926997;29;20242;-49
2023/05/15 09:56:17;;;;;;;6.63;5.78;;;;;;;17.33;65.56;100862.66;4924605;29;20607;-50
2023/05/15 09:58:58;;;;;;;7.15;5.78;;;;;;;17.23;64.32;100848.84;4928377;29;20180;-50
2023/05/15 10:01:25;;;;;;;6.93;5.95;;;;;;;17.26;64.93;100863.06;4921235;29;20195;-49
2023/05/15 10:04:02;;;;;;;6.53;5.93;;;;;;;17.08;63.95;100854.31;4926949;29;20227;-49
2023/05/15 10:06:54;;;;;;;10.38;5.95;;;;;;;16.75;64.52;100851.91;4925852;29;20246;-48
2023/05/15 10:09:20;;;;;;;7.38;6.55;;;;;;;16.98;63.17;100838.75;4930981;29;20203;-49
2023/05/15 10:11:51;;;;;;;8.23;5.10;;;;;;;17.53;62.41;100839.66;4931133;29;20195;-48
2023/05/15 10:14:18;;;;;;;8.15;5.65;;;;;;;17.61;62.29;100837.31;4929390;29;20204;-49
2023/05/15 10:16:44;;;;;;;9.38;5.82;;;;;;;17.60;61.82;100828.31;4926741;29;20199;-48
2023/05/15 10:19:11;;;;;;;7.93;5.07;;;;;;;17.82;60.80;100819.63;4924006;29;20195;-47
2023/05/15 10:21:39;;;;;;;6.25;5.35;;;;;;;18.00;60.48;100816.59;4928859;29;20199;-49
2023/05/15 10:24:05;;;;;;;4.90;4.50;;;;;;;17.77;58.92;100796.47;4927488;29;20253;-50
2023/05/15 10:26:41;;;;;;;11.52;5.10;;;;;;;17.85;59.10;100804.97;4929720;29;20204;-50
2023/05/15 10:29:10;;;;;;;6.40;4.47;;;;;;;17.86;58.44;100795.84;4926483;29;20191;-49
2023/05/15 10:31:36;;;;;;;7.18;5.18;;;;;;;17.98;58.75;100796.88;4917873;29;20341;-49
2023/05/15 10:34:06;;;;;;;7.72;5.18;;;;;;;17.69;59.11;100788.88;4920807;29;20192;-48
2023/05/15 10:36:32;;;;;;;16.05;4.93;;;;;;;17.51;60.50;100807.25;4920829;29;20596;-49
2023/05/15 10:39:06;;;;;;;17.45;5.60;;;;;;;17.60;61.47;100812.06;4926721;29;20175;-49
2023/05/15 10:41:34;;;;;;;12.38;5.25;;;;;;;18.18;61.20;100817.16;4928890;29;20187;-48
2023/05/15 10:44:00;;;;;;;6.03;4.70;;;;;;;18.06;59.53;100792.66;4922706;29;20218;-49
2023/05/15 10:46:30;;;;;;;9.43;4.45;;;;;;;18.04;60.79;100808.16;4922225;29;20184;-50
2023/05/15 10:48:58;;;;;;;11.68;4.70;;;;;;;17.96;60.34;100810.53;4922966;29;20203;-48
2023/05/15 10:51:28;;;;;;;5.22;3.80;;;;;;;18.16;59.81;100808.25;4924363;29;20179;-49
2023/05/15 10:53:55;;;;;;;6.03;3.88;;;;;;;18.31;59.35;100790.91;4925217;29;20215;-49
2023/05/15 10:56:28;;;;;;;4.97;4.00;;;;;;;17.85;59.02;100784.16;4918290;29;20176;-48
2023/05/15 10:58:54;;;;;;;6.32;3.92;;;;;;;18.01;58.81;100788.50;4924688;29;20192;-48
2023/05/15 11:01:27;;;;;;;5.57;4.00;;;;;;;18.08;58.30;100787.09;4927173;29;20658;-48
2023/05/15 11:04:13;;;;;;;5.38;3.70;;;;;;;18.15;57.77;100766.72;4924713;29;20207;-51
2023/05/15 11:06:41;;;;;;;10.45;3.83;;;;;;;18.16;56.85;100770.28;4919147;29;20274;-47
2023/05/15 11:09:25;;;;;;;4.95;3.80;;;;;;;18.16;56.06;100749.47;4926491;29;20215;-48
2023/05/15 11:11:51;;;;;;;5.63;3.58;;;;;;;18.17;56.06;100755.75;4927692;29;20582;-49
2023/05/15 11:14:20;;;;;;;5.72;3.90;;;;;;;18.32;56.08;100754.66;4924496;29;20305;-48
2023/05/15 11:16:56;;;;;;;6.30;3.22;;;;;;;18.43;56.68;100768.34;4930923;29;20666;-49
2023/05/15 11:19:23;;;;;;;5.88;3.58;;;;;;;18.18;56.40;100758.34;4922826;29;20199;-50